createdAt,value
2023-04-10T00:01:03.412Z,18.38
2023-04-10T00:03:07.248Z,14.18
2023-04-10T00:05:10.712Z,13.18
2023-04-10T00:07:14.478Z,14.32
2023-04-10T00:09:17.422Z,15.27
2023-04-10T00:11:20.204Z,9.80
2023-04-10T00:13:23.512Z,17.08
2023-04-10T00:15:26.127Z,16.65
2023-04-10T00:17:28.812Z,13.48
2023-04-10T00:19:31.738Z,12.68
2023-04-10T00:21:34.360Z,13.65
2023-04-10T00:23:37.710Z,13.98
2023-04-10T00:25:40.340Z,11.52
2023-04-10T00:27:43.022Z,11.95
2023-04-10T00:29:45.659Z,18.58
2023-04-10T00:31:48.283Z,15.32
2023-04-10T00:33:50.956Z,11.30
2023-04-10T00:35:53.597Z,12.63
2023-04-10T00:37:57.025Z,15.35
2023-04-10T00:39:59.952Z,9.90
2023-04-10T00:42:02.595Z,11.77
2023-04-10T00:44:05.228Z,14.18
2023-04-10T00:46:09.033Z,12.73
2023-04-10T00:48:12.126Z,9.80
2023-04-10T00:50:14.835Z,15.40
2023-04-10T00:52:18.000Z,15.30
2023-04-10T00:54:21.169Z,14.50
2023-04-10T00:56:24.528Z,14.60
2023-04-10T00:58:27.141Z,13.52
2023-04-10T01:00:29.728Z,16.90
2023-04-10T01:02:32.492Z,14.07
2023-04-10T01:04:35.636Z,13.55
2023-04-10T01:07:00.800Z,13.55
2023-04-10T01:09:20.961Z,17.88
2023-04-10T01:11:52.578Z,12.02
2023-04-10T01:14:19.735Z,12.55
2023-04-10T01:16:31.266Z,14.82
2023-04-10T01:18:50.046Z,13.85
2023-04-10T01:20:53.280Z,11.77
2023-04-10T01:23:24.159Z,12.68
2023-04-10T01:25:35.230Z,13.45
2023-04-10T01:27:37.715Z,10.38
2023-04-10T01:29:47.290Z,15.00
2023-04-10T01:31:58.475Z,22.23
2023-04-10T01:34:07.540Z,19.33
2023-04-10T01:36:18.842Z,17.33
2023-04-10T01:38:27.322Z,13.25
2023-04-10T01:40:31.971Z,13.40
2023-04-10T01:42:45.636Z,14.15
2023-04-10T01:44:50.615Z,17.55
2023-04-10T01:46:54.494Z,15.10
2023-04-10T01:49:00.844Z,9.73
2023-04-10T01:51:06.789Z,18.33
2023-04-10T01:53:10.394Z,16.40
2023-04-10T01:55:13.769Z,18.25
2023-04-10T01:57:17.449Z,14.07
2023-04-10T01:59:20.761Z,15.77
2023-04-10T02:01:29.741Z,10.90
2023-04-10T02:03:33.386Z,13.27
2023-04-10T02:05:55.137Z,14.38
2023-04-10T02:08:15.791Z,13.82
2023-04-10T02:10:54.677Z,15.85
2023-04-10T02:13:08.134Z,16.70
2023-04-10T02:15:12.843Z,14.77
2023-04-10T02:17:21.059Z,23.85
2023-04-10T02:19:27.199Z,17.40
2023-04-10T02:21:30.015Z,17.90
2023-04-10T02:23:32.607Z,15.05
2023-04-10T02:25:36.228Z,14.32
2023-04-10T02:27:40.813Z,19.23
2023-04-10T02:29:43.443Z,11.05
2023-04-10T02:31:46.911Z,13.60
2023-04-10T02:33:49.672Z,16.05
2023-04-10T02:35:52.346Z,12.07
2023-04-10T02:37:55.706Z,12.30
2023-04-10T02:39:58.364Z,14.82
2023-04-10T02:42:01.462Z,17.20
2023-04-10T02:44:04.311Z,14.38
2023-04-10T02:46:07.252Z,16.17
2023-04-10T02:48:11.250Z,13.20
2023-04-10T02:50:14.025Z,15.95
2023-04-10T02:52:17.585Z,15.00
2023-04-10T02:54:20.189Z,14.60
2023-04-10T02:56:22.930Z,15.57
2023-04-10T02:58:25.594Z,11.30
2023-04-10T03:00:28.212Z,12.73
2023-04-10T03:02:31.391Z,17.10
2023-04-10T03:04:34.271Z,14.80
2023-04-10T03:06:37.157Z,13.40
2023-04-10T03:08:39.781Z,13.45
2023-04-10T03:10:45.518Z,12.60
2023-04-10T03:12:48.970Z,11.98
2023-04-10T03:14:51.658Z,11.82
2023-04-10T03:16:54.387Z,13.40
2023-04-10T03:18:57.317Z,10.50
2023-04-10T03:21:00.158Z,14.98
2023-04-10T03:23:04.217Z,11.70
2023-04-10T03:25:07.404Z,12.27
2023-04-10T03:27:10.106Z,9.65
2023-04-10T03:29:12.864Z,14.75
2023-04-10T03:31:15.672Z,12.57
2023-04-10T03:33:18.444Z,8.02
2023-04-10T03:35:21.101Z,13.32
2023-04-10T03:37:23.784Z,12.70
2023-04-10T03:39:26.444Z,8.95
2023-04-10T03:41:29.055Z,11.15
2023-04-10T03:43:31.693Z,8.40
2023-04-10T03:45:34.830Z,9.93
2023-04-10T03:47:37.556Z,9.73
2023-04-10T03:49:40.288Z,7.93
2023-04-10T03:51:43.014Z,8.30
2023-04-10T03:53:45.691Z,6.47
2023-04-10T03:55:48.348Z,8.73
2023-04-10T03:57:51.062Z,7.88
2023-04-10T03:59:53.666Z,5.20
2023-04-10T04:01:56.449Z,9.20
2023-04-10T04:03:59.694Z,11.00
2023-04-10T04:06:03.025Z,6.75
2023-04-10T04:08:07.076Z,8.90
2023-04-10T04:10:09.889Z,10.15
2023-04-10T04:12:12.879Z,8.07
2023-04-10T04:14:15.553Z,7.85
2023-04-10T04:16:18.406Z,7.25
2023-04-10T04:18:21.247Z,5.97
2023-04-10T04:20:23.930Z,6.80
2023-04-10T04:22:26.575Z,4.40
2023-04-10T04:24:29.231Z,8.20
2023-04-10T04:26:31.911Z,6.05
2023-04-10T04:28:34.506Z,4.63
2023-04-10T04:30:37.143Z,6.80
2023-04-10T04:32:39.975Z,5.25
2023-04-10T04:34:42.818Z,6.25
2023-04-10T04:36:45.569Z,8.43
2023-04-10T04:38:48.141Z,6.13
2023-04-10T04:40:50.864Z,7.97
2023-04-10T04:42:53.507Z,11.25
2023-04-10T04:44:56.135Z,7.22
2023-04-10T04:46:58.791Z,4.90
2023-04-10T04:49:01.438Z,3.85
2023-04-10T04:51:04.258Z,5.05
2023-04-10T04:53:08.007Z,4.97
2023-04-10T04:55:11.666Z,6.25
2023-04-10T04:57:15.490Z,5.25
2023-04-10T04:59:18.281Z,9.88
2023-04-10T05:01:21.038Z,6.20
2023-04-10T05:03:24.473Z,6.85
2023-04-10T05:05:27.613Z,6.05
2023-04-10T05:07:30.268Z,7.30
2023-04-10T05:09:33.248Z,8.60
2023-04-10T05:11:35.866Z,7.30
2023-04-10T05:13:38.477Z,6.07
2023-04-10T05:15:41.371Z,4.65
2023-04-10T05:17:44.205Z,5.20
2023-04-10T05:19:46.929Z,4.93
2023-04-10T05:21:49.652Z,9.55
2023-04-10T05:23:52.288Z,6.45
2023-04-10T05:25:54.938Z,4.90
2023-04-10T05:27:57.632Z,6.50
2023-04-10T05:30:00.367Z,6.65
2023-04-10T05:32:03.076Z,5.05
2023-04-10T05:34:05.957Z,4.35
2023-04-10T05:36:09.053Z,5.88
2023-04-10T05:38:11.812Z,4.90
2023-04-10T05:40:14.528Z,5.35
2023-04-10T05:42:17.176Z,6.07
2023-04-10T05:44:19.894Z,11.00
2023-04-10T05:46:22.626Z,5.55
2023-04-10T05:48:26.356Z,7.50
2023-04-10T05:50:30.477Z,4.40
2023-04-10T05:52:33.426Z,10.38
2023-04-10T05:54:36.423Z,6.07
2023-04-10T05:56:39.156Z,5.15
2023-04-10T05:58:42.008Z,8.23
2023-04-10T06:00:44.693Z,5.82
2023-04-10T06:02:47.503Z,5.03
2023-04-10T06:04:50.699Z,4.32
2023-04-10T06:06:54.116Z,5.85
2023-04-10T06:08:57.199Z,6.80
2023-04-10T06:10:59.850Z,11.63
2023-04-10T06:13:02.620Z,3.97
2023-04-10T06:15:05.737Z,6.05
2023-04-10T06:17:08.585Z,6.43
2023-04-10T06:19:11.485Z,4.75
2023-04-10T06:21:14.831Z,11.50
2023-04-10T06:23:17.439Z,6.63
2023-04-10T06:25:20.171Z,5.35
2023-04-10T06:27:22.927Z,7.60
2023-04-10T06:29:25.879Z,8.48
2023-04-10T06:31:28.607Z,5.30
2023-04-10T06:33:31.272Z,7.22
2023-04-10T06:35:34.989Z,5.60
2023-04-10T06:37:37.726Z,7.50
2023-04-10T06:39:40.523Z,8.18
2023-04-10T06:41:43.344Z,5.07
2023-04-10T06:43:46.507Z,4.40
2023-04-10T06:45:49.266Z,2.75
2023-04-10T06:47:52.281Z,2.88
2023-04-10T06:49:55.057Z,4.80
2023-04-10T06:51:57.654Z,4.85
2023-04-10T06:54:00.530Z,6.60
2023-04-10T06:56:03.755Z,5.97
2023-04-10T06:58:06.682Z,4.90
2023-04-10T07:00:10.159Z,5.47
2023-04-10T07:02:13.000Z,3.22
2023-04-10T07:04:15.813Z,4.55
2023-04-10T07:06:18.694Z,6.80
2023-04-10T07:08:21.287Z,6.35
2023-04-10T07:10:24.032Z,5.07
2023-04-10T07:12:27.086Z,6.40
2023-04-10T07:14:29.699Z,4.32
2023-04-10T07:16:32.962Z,2.95
2023-04-10T07:18:38.649Z,3.95
2023-04-10T07:20:41.224Z,5.88
2023-04-10T07:22:43.844Z,4.28
2023-04-10T07:24:46.621Z,4.45
2023-04-10T07:26:49.241Z,3.40
2023-04-10T07:28:52.065Z,5.55
2023-04-10T07:30:54.950Z,6.15
2023-04-10T07:32:57.959Z,5.30
2023-04-10T07:35:01.113Z,5.68
2023-04-10T07:37:04.137Z,3.53
2023-04-10T07:39:07.002Z,4.07
2023-04-10T07:41:12.318Z,5.00
2023-04-10T07:43:15.158Z,6.63
2023-04-10T07:45:17.865Z,4.05
2023-04-10T07:47:20.557Z,4.55
2023-04-10T07:49:23.417Z,6.05
2023-04-10T07:51:26.137Z,3.30
2023-04-10T07:53:28.913Z,7.47
2023-04-10T07:55:31.641Z,5.78
2023-04-10T07:57:34.308Z,4.45
2023-04-10T07:59:36.924Z,2.70
2023-04-10T08:01:40.989Z,4.20
2023-04-10T08:03:47.833Z,4.15
2023-04-10T08:05:51.010Z,9.10
2023-04-10T08:07:54.015Z,4.15
2023-04-10T08:09:56.607Z,6.00
2023-04-10T08:11:59.233Z,2.85
2023-04-10T08:14:03.137Z,2.35
2023-04-10T08:16:06.519Z,6.03
2023-04-10T08:18:09.188Z,4.88
2023-04-10T08:20:12.538Z,6.30
2023-04-10T08:22:15.287Z,4.65
2023-04-10T08:24:20.276Z,2.42
2023-04-10T08:26:23.544Z,2.83
2023-04-10T08:28:26.213Z,2.58
2023-04-10T08:30:28.872Z,7.85
2023-04-10T08:32:31.760Z,4.85
2023-04-10T08:34:34.526Z,5.93
2023-04-10T08:36:37.371Z,3.03
2023-04-10T08:38:40.169Z,3.92
2023-04-10T08:40:44.771Z,5.22
2023-04-10T08:42:47.653Z,2.28
2023-04-10T08:44:50.565Z,5.03
2023-04-10T08:46:53.728Z,2.15
2023-04-10T08:49:04.537Z,2.53
2023-04-10T08:51:18.681Z,4.03
2023-04-10T08:53:25.050Z,3.10
2023-04-10T08:55:27.900Z,2.80
2023-04-10T08:57:31.060Z,2.90
2023-04-10T08:59:33.904Z,3.42
2023-04-10T09:01:36.914Z,3.75
2023-04-10T09:03:39.919Z,5.65
2023-04-10T09:05:43.037Z,2.80
2023-04-10T09:07:45.694Z,2.42
2023-04-10T09:09:48.359Z,1.83
2023-04-10T09:11:56.498Z,2.53
2023-04-10T09:13:59.190Z,10.60
2023-04-10T09:16:02.127Z,4.30
2023-04-10T09:18:04.860Z,3.83
2023-04-10T09:20:22.204Z,5.63
2023-04-10T09:22:35.635Z,2.15
2023-04-10T09:24:43.176Z,2.25
2023-04-10T09:26:45.820Z,4.20
2023-04-10T09:28:58.574Z,2.58
2023-04-10T09:31:01.190Z,1.90
2023-04-10T09:33:04.374Z,4.75
2023-04-10T09:35:08.782Z,4.65
2023-04-10T09:37:11.392Z,2.33
2023-04-10T09:39:14.175Z,8.43
2023-04-10T09:41:16.902Z,1.80
2023-04-10T09:43:25.938Z,2.00
2023-04-10T09:45:47.698Z,2.28
2023-04-10T09:48:07.312Z,2.25
2023-04-10T09:50:10.067Z,2.65
2023-04-10T09:52:27.395Z,1.15
2023-04-10T09:54:38.839Z,8.43
2023-04-10T09:56:44.103Z,1.92
2023-04-10T09:58:47.047Z,2.33
2023-04-10T10:00:50.060Z,1.98
2023-04-10T10:02:55.271Z,1.85
2023-04-10T10:05:02.451Z,1.38
2023-04-10T10:07:06.066Z,2.40
2023-04-10T10:09:09.384Z,1.38
2023-04-10T10:11:18.243Z,1.52
2023-04-10T10:13:44.758Z,1.98
2023-04-10T10:16:10.358Z,6.15
2023-04-10T10:18:43.576Z,2.42
2023-04-10T10:20:47.419Z,3.30
2023-04-10T10:22:50.830Z,2.67
2023-04-10T10:24:56.843Z,3.25
2023-04-10T10:27:01.994Z,1.08
2023-04-10T10:29:07.033Z,5.65
2023-04-10T10:31:11.319Z,3.40
2023-04-10T10:33:14.922Z,2.70
2023-04-10T10:35:18.569Z,1.92
2023-04-10T10:37:24.029Z,1.88
2023-04-10T10:40:02.180Z,6.43
2023-04-10T10:42:23.150Z,1.80
2023-04-10T10:45:05.217Z,1.92
2023-04-10T10:47:18.033Z,1.52
2023-04-10T10:49:20.782Z,1.70
2023-04-10T10:51:23.529Z,1.90
2023-04-10T10:53:44.502Z,1.77
2023-04-10T10:55:47.180Z,1.92
2023-04-10T10:57:54.016Z,1.42
2023-04-10T10:59:56.987Z,1.77
2023-04-10T11:02:16.993Z,1.27
2023-04-10T11:04:46.915Z,2.47
2023-04-10T11:06:52.316Z,2.33
2023-04-10T11:08:55.167Z,2.90
2023-04-10T11:11:10.068Z,1.63
2023-04-10T11:13:18.661Z,2.20
2023-04-10T11:15:25.575Z,0.95
2023-04-10T11:17:51.500Z,1.80
2023-04-10T11:20:01.100Z,1.08
2023-04-10T11:22:07.703Z,3.95
2023-04-10T11:24:10.437Z,2.00
2023-04-10T11:26:13.181Z,1.27
2023-04-10T11:28:35.478Z,1.40
2023-04-10T11:30:38.411Z,1.60
2023-04-10T11:32:42.640Z,2.67
2023-04-10T11:34:46.082Z,3.45
2023-04-10T11:36:48.826Z,2.17
2023-04-10T11:38:56.303Z,2.13
2023-04-10T11:41:06.961Z,1.63
2023-04-10T11:43:14.386Z,1.63
2023-04-10T11:45:28.100Z,1.30
2023-04-10T11:47:31.169Z,3.92
2023-04-10T11:49:35.119Z,2.38
2023-04-10T11:51:39.141Z,2.83
2023-04-10T11:53:42.901Z,2.42
2023-04-10T11:55:46.896Z,2.90
2023-04-10T11:57:49.580Z,1.13
2023-04-10T11:59:52.391Z,1.20
2023-04-10T12:02:11.200Z,2.15
2023-04-10T12:04:17.105Z,2.28
2023-04-10T12:06:20.720Z,4.75
2023-04-10T12:08:34.943Z,1.50
2023-04-10T12:10:47.617Z,1.85
2023-04-10T12:12:50.360Z,2.50
2023-04-10T12:14:53.105Z,2.88
2023-04-10T12:16:57.067Z,1.80
2023-04-10T12:18:59.928Z,2.08
2023-04-10T12:21:05.028Z,1.33
2023-04-10T12:23:08.628Z,1.90
2023-04-10T12:25:12.989Z,1.88
2023-04-10T12:27:29.118Z,2.10
2023-04-10T12:29:32.011Z,8.10
2023-04-10T12:31:36.652Z,1.25
2023-04-10T12:33:39.778Z,3.67
2023-04-10T12:35:45.118Z,1.00
2023-04-10T12:37:52.505Z,3.95
2023-04-10T12:40:06.868Z,5.22
2023-04-10T12:42:13.607Z,3.70
2023-04-10T12:44:24.168Z,3.25
2023-04-10T12:46:34.678Z,4.07
2023-04-10T12:48:37.430Z,2.05
2023-04-10T12:50:48.123Z,2.15
2023-04-10T12:53:11.573Z,1.38
2023-04-10T12:55:15.987Z,6.15
2023-04-10T12:57:27.836Z,1.20
2023-04-10T12:59:31.852Z,1.25
2023-04-10T13:01:34.658Z,1.20
2023-04-10T13:03:38.686Z,3.05
2023-04-10T13:05:41.638Z,2.83
2023-04-10T13:07:44.307Z,2.47
2023-04-10T13:09:47.143Z,0.98
2023-04-10T13:11:52.213Z,1.35
2023-04-10T13:13:55.098Z,1.40
2023-04-10T13:15:57.778Z,4.60
2023-04-10T13:18:01.656Z,0.85
2023-04-10T13:20:06.694Z,2.03
2023-04-10T13:22:09.303Z,1.45
2023-04-10T13:24:12.277Z,1.52
2023-04-10T13:26:15.698Z,1.75
2023-04-10T13:28:19.131Z,1.77
2023-04-10T13:30:21.778Z,1.52
2023-04-10T13:32:24.532Z,2.35
2023-04-10T13:34:28.150Z,2.78
2023-04-10T13:36:32.067Z,1.73
2023-04-10T13:38:34.710Z,3.13
2023-04-10T13:40:37.614Z,2.90
2023-04-10T13:42:42.395Z,1.52
2023-04-10T13:44:45.730Z,3.60
2023-04-10T13:46:48.477Z,3.47
2023-04-10T13:48:51.292Z,3.88
2023-04-10T13:50:53.861Z,3.95
2023-04-10T13:52:56.517Z,1.75
2023-04-10T13:54:59.285Z,1.30
2023-04-10T13:57:03.000Z,3.92
2023-04-10T13:59:05.769Z,6.85
2023-04-10T14:01:08.509Z,2.75
2023-04-10T14:03:12.632Z,1.00
2023-04-10T14:05:15.384Z,1.75
2023-04-10T14:07:20.200Z,1.73
2023-04-10T14:09:22.889Z,2.20
2023-04-10T14:11:26.482Z,3.90
2023-04-10T14:13:30.591Z,3.42
2023-04-10T14:15:33.873Z,1.35
2023-04-10T14:17:36.600Z,1.58
2023-04-10T14:19:39.934Z,1.20
2023-04-10T14:21:44.636Z,1.33
2023-04-10T14:23:48.126Z,1.20
2023-04-10T14:25:51.246Z,3.58
2023-04-10T14:27:53.915Z,1.52
2023-04-10T14:29:56.566Z,1.92
2023-04-10T14:31:59.320Z,2.88
2023-04-10T14:34:02.361Z,2.90
2023-04-10T14:36:05.574Z,3.08
2023-04-10T14:38:08.287Z,3.50
2023-04-10T14:40:11.302Z,4.32
2023-04-10T14:42:14.044Z,1.65
2023-04-10T14:44:17.097Z,1.75
2023-04-10T14:46:19.990Z,3.08
2023-04-10T14:48:23.300Z,1.05
2023-04-10T14:50:26.164Z,0.70
2023-04-10T14:52:28.840Z,2.55
2023-04-10T14:54:31.444Z,2.60
2023-04-10T14:56:34.188Z,2.08
2023-04-10T14:58:36.878Z,1.13
2023-04-10T15:00:39.896Z,1.20
2023-04-10T15:02:42.784Z,3.63
2023-04-10T15:04:45.567Z,3.33
2023-04-10T15:06:48.320Z,1.83
2023-04-10T15:08:50.934Z,2.70
2023-04-10T15:10:53.736Z,2.33
2023-04-10T15:12:56.567Z,1.50
2023-04-10T15:14:59.152Z,0.95
2023-04-10T15:17:01.978Z,1.77
2023-04-10T15:19:04.824Z,2.85
2023-04-10T15:21:07.782Z,1.60
2023-04-10T15:23:11.401Z,1.63
2023-04-10T15:25:14.099Z,3.03
2023-04-10T15:27:16.938Z,4.07
2023-04-10T15:29:19.681Z,6.13
2023-04-10T15:31:24.046Z,1.00
2023-04-10T15:33:26.919Z,1.55
2023-04-10T15:35:30.724Z,1.20
2023-04-10T15:37:36.841Z,1.33
2023-04-10T15:39:39.477Z,2.08
2023-04-10T15:41:42.128Z,1.85
2023-04-10T15:43:44.976Z,3.85
2023-04-10T15:45:47.632Z,1.52
2023-04-10T15:47:50.968Z,0.98
2023-04-10T15:49:53.675Z,5.68
2023-04-10T15:51:56.336Z,2.75
2023-04-10T15:53:59.039Z,2.15
2023-04-10T15:56:05.662Z,3.05
2023-04-10T15:58:08.347Z,4.20
2023-04-10T16:00:12.014Z,3.60
2023-04-10T16:02:14.884Z,2.03
2023-04-10T16:04:17.651Z,1.58
2023-04-10T16:06:20.303Z,2.72
2023-04-10T16:08:24.947Z,2.10
2023-04-10T16:10:27.639Z,3.47
2023-04-10T16:12:30.458Z,1.42
2023-04-10T16:14:33.215Z,0.88
2023-04-10T16:16:35.922Z,1.60
2023-04-10T16:18:38.538Z,1.65
2023-04-10T16:20:42.329Z,1.60
2023-04-10T16:22:45.128Z,4.05
2023-04-10T16:24:47.750Z,4.18
2023-04-10T16:26:50.622Z,1.48
2023-04-10T16:28:53.770Z,3.58
2023-04-10T16:30:57.494Z,3.70
2023-04-10T16:33:00.256Z,2.13
2023-04-10T16:35:02.947Z,1.13
2023-04-10T16:37:05.804Z,1.17
2023-04-10T16:39:08.874Z,3.15
2023-04-10T16:41:12.721Z,4.20
2023-04-10T16:43:15.496Z,2.17
2023-04-10T16:45:18.172Z,2.47
2023-04-10T16:47:21.041Z,1.65
2023-04-10T16:49:24.720Z,2.00
2023-04-10T16:51:27.609Z,1.00
2023-04-10T16:53:30.482Z,1.77
2023-04-10T16:55:33.122Z,2.28
2023-04-10T16:57:35.917Z,1.02
2023-04-10T16:59:38.573Z,1.58
2023-04-10T17:01:41.163Z,1.00
2023-04-10T17:03:44.868Z,1.20
2023-04-10T17:05:47.636Z,1.58
2023-04-10T17:07:50.417Z,3.42
2023-04-10T17:09:53.152Z,1.67
2023-04-10T17:11:56.051Z,1.65
2023-04-10T17:13:58.905Z,1.98
2023-04-10T17:16:01.805Z,4.18
2023-04-10T17:18:04.650Z,3.08
2023-04-10T17:20:09.875Z,0.93
2023-04-10T17:22:20.782Z,1.83
2023-04-10T17:24:23.547Z,1.30
2023-04-10T17:26:26.313Z,3.20
2023-04-10T17:28:28.998Z,0.80
2023-04-10T17:30:31.754Z,2.85
2023-04-10T17:32:34.622Z,4.13
2023-04-10T17:34:38.623Z,0.98
2023-04-10T17:36:42.421Z,3.03
2023-04-10T17:38:45.093Z,2.85
2023-04-10T17:40:47.835Z,4.63
2023-04-10T17:42:50.458Z,2.17
2023-04-10T17:44:53.259Z,4.00
2023-04-10T17:46:56.028Z,1.83
2023-04-10T17:49:01.766Z,2.00
2023-04-10T17:51:06.964Z,3.53
2023-04-10T17:53:09.944Z,3.25
2023-04-10T17:55:12.641Z,2.40
2023-04-10T17:57:15.569Z,2.97
2023-04-10T17:59:18.238Z,1.45
2023-04-10T18:01:25.956Z,2.08
2023-04-10T18:03:28.850Z,2.53
2023-04-10T18:05:31.710Z,4.75
2023-04-10T18:07:34.507Z,4.68
2023-04-10T18:09:37.993Z,3.10
2023-04-10T18:11:40.882Z,4.68
2023-04-10T18:13:43.715Z,4.88
2023-04-10T18:15:46.466Z,2.92
2023-04-10T18:17:49.726Z,5.63
2023-04-10T18:19:52.814Z,4.93
2023-04-10T18:21:55.526Z,4.75
2023-04-10T18:23:58.240Z,2.50
2023-04-10T18:26:01.036Z,12.13
2023-04-10T18:28:14.547Z,4.05
2023-04-10T18:30:19.032Z,5.40
2023-04-10T18:32:21.788Z,4.97
2023-04-10T18:34:24.632Z,6.25
2023-04-10T18:36:27.858Z,3.90
2023-04-10T18:38:30.580Z,3.25
2023-04-10T18:40:34.832Z,1.10
2023-04-10T18:42:37.480Z,3.38
2023-04-10T18:44:40.149Z,5.95
2023-04-10T18:46:48.466Z,3.28
2023-04-10T18:48:56.294Z,1.90
2023-04-10T18:50:59.244Z,2.53
2023-04-10T18:53:01.976Z,1.95
2023-04-10T18:55:04.953Z,4.72
2023-04-10T18:57:07.759Z,2.50
2023-04-10T18:59:10.519Z,1.52
2023-04-10T19:01:13.254Z,3.70
2023-04-10T19:03:16.192Z,0.98
2023-04-10T19:05:19.131Z,1.13
2023-04-10T19:07:21.761Z,1.75
2023-04-10T19:09:24.682Z,4.30
2023-04-10T19:11:27.447Z,7.03
2023-04-10T19:13:30.091Z,3.38
2023-04-10T19:15:32.816Z,2.85
2023-04-10T19:17:35.635Z,4.50
2023-04-10T19:19:38.310Z,2.78
2023-04-10T19:21:41.088Z,3.28
2023-04-10T19:23:43.876Z,7.10
2023-04-10T19:25:46.744Z,2.90
2023-04-10T19:27:49.484Z,1.85
2023-04-10T19:29:53.116Z,1.42
2023-04-10T19:31:56.200Z,2.63
2023-04-10T19:33:58.945Z,2.60
2023-04-10T19:36:01.743Z,1.40
2023-04-10T19:38:04.476Z,1.42
2023-04-10T19:40:07.701Z,2.38
2023-04-10T19:42:10.879Z,0.60
2023-04-10T19:44:14.032Z,0.57
2023-04-10T19:46:18.039Z,4.45
2023-04-10T19:48:20.911Z,8.68
2023-04-10T19:50:23.615Z,7.22
2023-04-10T19:52:26.489Z,2.80
2023-04-10T19:54:30.058Z,2.83
2023-04-10T19:56:34.998Z,1.85
2023-04-10T19:58:41.121Z,1.92
2023-04-10T20:00:44.591Z,2.28
2023-04-10T20:02:47.861Z,2.95
2023-04-10T20:04:50.884Z,3.50
2023-04-10T20:06:53.706Z,2.22
2023-04-10T20:08:56.638Z,4.05
2023-04-10T20:10:59.705Z,1.77
2023-04-10T20:13:02.437Z,5.95
2023-04-10T20:15:05.777Z,2.67
2023-04-10T20:17:08.563Z,4.07
2023-04-10T20:19:11.213Z,4.15
2023-04-10T20:21:14.044Z,1.45
2023-04-10T20:23:16.764Z,1.20
2023-04-10T20:25:19.403Z,2.30
2023-04-10T20:27:22.037Z,1.60
2023-04-10T20:29:24.712Z,2.08
2023-04-10T20:31:27.618Z,2.03
2023-04-10T20:33:30.450Z,1.58
2023-04-10T20:35:33.229Z,2.58
2023-04-10T20:37:35.896Z,1.88
2023-04-10T20:39:38.525Z,2.97
2023-04-10T20:41:41.274Z,2.13
2023-04-10T20:43:43.986Z,1.60
2023-04-10T20:45:46.622Z,1.90
2023-04-10T20:47:49.439Z,1.45
2023-04-10T20:49:52.121Z,2.45
2023-04-10T20:51:54.942Z,4.72
2023-04-10T20:53:59.075Z,2.67
2023-04-10T20:56:03.039Z,3.05
2023-04-10T20:58:07.468Z,2.80
2023-04-10T21:00:10.928Z,1.05
2023-04-10T21:02:13.805Z,2.17
2023-04-10T21:04:16.550Z,1.85
2023-04-10T21:06:19.353Z,3.88
2023-04-10T21:08:22.260Z,1.67
2023-04-10T21:10:25.216Z,3.58
2023-04-10T21:12:27.850Z,1.88
2023-04-10T21:14:30.628Z,3.47
2023-04-10T21:16:34.988Z,6.28
2023-04-10T21:18:37.714Z,3.67
2023-04-10T21:20:40.486Z,5.72
2023-04-10T21:22:43.204Z,4.03
2023-04-10T21:24:45.941Z,2.40
2023-04-10T21:26:48.720Z,1.48
2023-04-10T21:28:51.312Z,3.60
2023-04-10T21:30:54.248Z,3.28
2023-04-10T21:32:56.995Z,2.90
2023-04-10T21:34:59.900Z,2.38
2023-04-10T21:37:02.605Z,2.65
2023-04-10T21:39:09.338Z,2.25
2023-04-10T21:41:12.158Z,3.83
2023-04-10T21:43:14.840Z,1.80
2023-04-10T21:45:17.587Z,3.72
2023-04-10T21:47:20.516Z,1.10
2023-04-10T21:49:23.071Z,2.00
2023-04-10T21:51:26.928Z,1.75
2023-04-10T21:53:29.743Z,4.50
2023-04-10T21:55:32.515Z,4.30
2023-04-10T21:57:35.321Z,2.55
2023-04-10T21:59:38.222Z,5.22
2023-04-10T22:01:41.981Z,2.83
2023-04-10T22:03:45.132Z,2.80
2023-04-10T22:05:49.097Z,2.88
2023-04-10T22:07:52.494Z,6.72
2023-04-10T22:09:55.182Z,1.92
2023-04-10T22:11:57.873Z,3.35
2023-04-10T22:14:09.341Z,2.47
2023-04-10T22:16:18.020Z,1.00
2023-04-10T22:18:20.736Z,4.00
2023-04-10T22:20:23.468Z,3.92
2023-04-10T22:22:26.337Z,4.10
2023-04-10T22:24:29.315Z,3.30
2023-04-10T22:26:33.090Z,6.00
2023-04-10T22:28:35.871Z,4.18
2023-04-10T22:30:38.572Z,9.50
2023-04-10T22:32:41.863Z,3.78
2023-04-10T22:34:46.129Z,3.13
2023-04-10T22:36:50.968Z,4.70
2023-04-10T22:38:54.828Z,3.08
2023-04-10T22:40:57.633Z,3.78
2023-04-10T22:43:00.381Z,3.20
2023-04-10T22:45:03.321Z,3.28
2023-04-10T22:47:08.338Z,1.95
2023-04-10T22:49:11.014Z,3.55
2023-04-10T22:51:14.300Z,7.25
2023-04-10T22:53:16.993Z,3.88
2023-04-10T22:55:19.803Z,2.13
2023-04-10T22:57:22.414Z,2.72
2023-04-10T22:59:25.208Z,2.70
2023-04-10T23:01:28.292Z,2.25
2023-04-10T23:03:30.997Z,1.77
2023-04-10T23:05:33.848Z,8.60
2023-04-10T23:07:36.544Z,4.15
2023-04-10T23:09:39.312Z,5.13
2023-04-10T23:11:42.017Z,16.58
2023-04-10T23:13:44.789Z,1.17
2023-04-10T23:15:51.483Z,2.30
2023-04-10T23:17:54.276Z,3.92
2023-04-10T23:19:57.071Z,3.15
2023-04-10T23:21:59.774Z,2.60
2023-04-10T23:24:02.703Z,3.20
2023-04-10T23:26:05.739Z,3.05
2023-04-10T23:28:08.706Z,2.25
2023-04-10T23:30:11.728Z,2.92
2023-04-10T23:32:15.612Z,1.75
2023-04-10T23:34:19.116Z,5.25
2023-04-10T23:36:21.815Z,4.88
2023-04-10T23:38:24.571Z,2.40
2023-04-10T23:40:27.249Z,2.88
2023-04-10T23:42:29.915Z,4.45
2023-04-10T23:44:32.615Z,3.03
2023-04-10T23:46:35.614Z,1.60
2023-04-10T23:48:38.448Z,5.18
2023-04-10T23:50:41.188Z,6.00
2023-04-10T23:52:49.499Z,2.38
2023-04-10T23:54:52.205Z,4.13
2023-04-10T23:56:54.962Z,4.03
2023-04-10T23:58:57.910Z,1.58
